createdAt,value
2017-10-10T00:01:47.388Z,88.31
2017-10-10T00:04:24.680Z,88.40
2017-10-10T00:07:02.043Z,88.37
2017-10-10T00:09:37.429Z,88.36
2017-10-10T00:12:13.517Z,88.31
2017-10-10T00:17:32.701Z,88.27
2017-10-10T00:20:09.311Z,88.41
2017-10-10T00:22:46.149Z,88.35
2017-10-10T00:25:30.478Z,88.36
2017-10-10T00:28:09.121Z,88.34
2017-10-10T00:30:52.376Z,88.31
2017-10-10T00:33:37.048Z,88.26
2017-10-10T00:36:22.059Z,88.36
2017-10-10T00:39:05.345Z,88.42
2017-10-10T00:41:47.741Z,88.31
2017-10-10T00:44:30.772Z,88.38
2017-10-10T00:47:14.608Z,88.34
2017-10-10T00:49:54.924Z,88.30
2017-10-10T00:52:30.444Z,88.32
2017-10-10T00:54:59.549Z,88.29
2017-10-10T00:57:27.890Z,88.37
2017-10-10T00:59:56.236Z,88.27
2017-10-10T01:02:26.968Z,88.32
2017-10-10T01:04:57.093Z,88.36
2017-10-10T01:07:25.813Z,88.38
2017-10-10T01:09:54.458Z,88.34
2017-10-10T01:12:23.116Z,88.37
2017-10-10T01:14:51.738Z,88.35
2017-10-10T01:17:20.462Z,88.31
2017-10-10T01:19:49.192Z,88.36
2017-10-10T01:22:17.832Z,88.30
2017-10-10T01:24:46.137Z,88.22
2017-10-10T01:27:14.816Z,88.31
2017-10-10T01:29:43.125Z,88.31
2017-10-10T01:32:11.818Z,88.25
2017-10-10T01:34:40.579Z,88.24
2017-10-10T01:37:09.267Z,88.26
2017-10-10T01:39:37.645Z,88.30
2017-10-10T01:42:05.958Z,88.27
2017-10-10T01:44:34.293Z,88.22
2017-10-10T01:47:02.893Z,88.23
2017-10-10T01:49:31.650Z,88.27
2017-10-10T01:52:00.271Z,88.29
2017-10-10T01:54:28.905Z,88.23
2017-10-10T01:56:57.582Z,88.24
2017-10-10T01:59:26.233Z,88.24
2017-10-10T02:01:54.861Z,88.24
2017-10-10T02:04:23.528Z,88.27
2017-10-10T02:06:52.211Z,88.30
2017-10-10T02:09:20.867Z,88.35
2017-10-10T02:11:49.497Z,88.27
2017-10-10T02:14:18.193Z,88.28
2017-10-10T02:16:46.837Z,88.22
2017-10-10T02:19:15.331Z,88.37
2017-10-10T02:21:43.935Z,88.22
2017-10-10T02:24:12.699Z,88.31
2017-10-10T02:26:41.319Z,88.21
2017-10-10T02:29:09.974Z,88.23
2017-10-10T02:31:38.655Z,88.17
2017-10-10T02:34:07.335Z,88.29
2017-10-10T02:36:36.004Z,88.29
2017-10-10T02:39:03.942Z,88.29
2017-10-10T02:41:32.458Z,88.24
2017-10-10T02:44:01.061Z,88.31
2017-10-10T02:46:29.662Z,88.19
2017-10-10T02:48:58.363Z,88.32
2017-10-10T02:51:27.077Z,88.27
2017-10-10T02:53:55.736Z,88.34
2017-10-10T02:56:24.373Z,88.30
2017-10-10T02:58:53.022Z,88.45
2017-10-10T03:01:21.731Z,88.42
2017-10-10T03:03:50.347Z,88.40
2017-10-10T03:06:18.955Z,88.50
2017-10-10T03:08:47.621Z,88.49
2017-10-10T03:11:16.269Z,88.58
2017-10-10T03:13:48.655Z,88.51
2017-10-10T03:16:17.270Z,88.62
2017-10-10T03:18:45.898Z,88.55
2017-10-10T03:21:14.545Z,88.78
2017-10-10T03:23:43.156Z,88.57
2017-10-10T03:26:11.774Z,88.52
2017-10-10T03:28:42.141Z,88.49
2017-10-10T03:31:10.794Z,88.87
2017-10-10T03:33:39.402Z,88.81
2017-10-10T03:36:08.046Z,88.65
2017-10-10T03:38:36.694Z,88.82
2017-10-10T03:41:05.346Z,88.90
2017-10-10T03:43:33.954Z,89.03
2017-10-10T03:46:02.617Z,89.17
2017-10-10T03:48:31.227Z,89.13
2017-10-10T03:50:59.881Z,89.22
2017-10-10T03:53:28.479Z,89.11
2017-10-10T03:55:57.163Z,89.26
2017-10-10T03:58:25.774Z,89.36
2017-10-10T04:00:55.317Z,89.07
2017-10-10T04:03:23.994Z,89.07
2017-10-10T04:05:52.460Z,89.01
2017-10-10T04:08:20.923Z,88.61
2017-10-10T04:10:49.445Z,88.92
2017-10-10T04:13:18.078Z,88.78
2017-10-10T04:15:47.035Z,88.55
2017-10-10T04:18:17.923Z,88.63
2017-10-10T04:20:48.282Z,88.65
2017-10-10T04:23:17.010Z,88.51
2017-10-10T04:25:45.691Z,88.60
2017-10-10T04:28:14.391Z,88.74
2017-10-10T04:30:43.051Z,88.63
2017-10-10T04:33:11.702Z,88.66
2017-10-10T04:35:40.370Z,89.05
2017-10-10T04:38:09.047Z,88.87
2017-10-10T04:40:37.740Z,89.15
2017-10-10T04:43:06.358Z,88.95
2017-10-10T04:45:35.030Z,89.14
2017-10-10T04:48:03.638Z,89.23
2017-10-10T04:50:32.259Z,89.17
2017-10-10T04:53:00.930Z,89.21
2017-10-10T04:55:29.406Z,89.55
2017-10-10T04:57:57.912Z,89.37
2017-10-10T05:00:26.304Z,89.43
2017-10-10T05:02:54.965Z,89.46
2017-10-10T05:05:23.581Z,89.40
2017-10-10T05:07:52.242Z,89.72
2017-10-10T05:10:26.903Z,89.80
2017-10-10T05:12:55.580Z,89.63
2017-10-10T05:15:24.213Z,89.71
2017-10-10T05:17:52.693Z,89.74
2017-10-10T05:20:21.388Z,89.94
2017-10-10T05:22:50.030Z,89.66
2017-10-10T05:25:18.659Z,89.74
2017-10-10T05:27:47.326Z,90.18
2017-10-10T05:30:15.990Z,90.10
2017-10-10T05:32:44.522Z,89.75
2017-10-10T05:35:13.183Z,89.86
2017-10-10T05:37:41.846Z,90.06
2017-10-10T05:40:10.463Z,90.09
2017-10-10T05:42:39.119Z,89.96
2017-10-10T05:45:07.731Z,90.03
2017-10-10T05:47:37.143Z,90.13
2017-10-10T05:50:05.805Z,90.29
2017-10-10T05:52:34.451Z,90.19
2017-10-10T05:55:03.076Z,90.11
2017-10-10T05:57:35.132Z,90.01
2017-10-10T06:00:03.610Z,90.00
2017-10-10T06:02:32.230Z,89.97
2017-10-10T06:05:00.875Z,89.98
2017-10-10T06:07:29.487Z,89.95
2017-10-10T06:09:58.154Z,89.96
2017-10-10T06:12:26.772Z,89.78
2017-10-10T06:14:55.436Z,89.90
2017-10-10T06:17:24.097Z,89.96
2017-10-10T06:19:52.718Z,90.18
2017-10-10T06:22:21.394Z,90.26
2017-10-10T06:24:50.011Z,90.14
2017-10-10T06:27:18.666Z,90.24
2017-10-10T06:29:47.194Z,90.21
2017-10-10T06:32:15.799Z,90.22
2017-10-10T06:34:44.428Z,90.23
2017-10-10T06:37:13.138Z,90.00
2017-10-10T06:39:41.746Z,90.47
2017-10-10T06:42:10.427Z,90.25
2017-10-10T06:44:39.054Z,90.31
2017-10-10T06:47:07.738Z,90.30
2017-10-10T06:49:36.351Z,90.19
2017-10-10T06:52:04.917Z,90.33
2017-10-10T06:54:33.573Z,90.34
2017-10-10T06:57:02.251Z,90.37
2017-10-10T06:59:30.880Z,90.36
2017-10-10T07:01:59.509Z,90.57
2017-10-10T07:04:28.170Z,90.71
2017-10-10T07:06:56.796Z,90.19
2017-10-10T07:09:25.416Z,90.31
2017-10-10T07:11:54.092Z,90.53
2017-10-10T07:14:22.718Z,90.42
2017-10-10T07:16:51.356Z,90.37
2017-10-10T07:19:20.069Z,90.58
2017-10-10T07:21:48.686Z,90.55
2017-10-10T07:24:17.338Z,90.45
2017-10-10T07:26:45.959Z,90.68
2017-10-10T07:29:14.622Z,90.68
2017-10-10T07:31:43.235Z,90.47
2017-10-10T07:34:11.855Z,90.17
2017-10-10T07:36:40.528Z,90.58
2017-10-10T07:39:09.243Z,90.62
2017-10-10T07:41:37.878Z,90.71
2017-10-10T07:44:06.503Z,90.57
2017-10-10T07:46:35.178Z,90.41
2017-10-10T07:49:03.798Z,90.47
2017-10-10T07:51:32.257Z,90.54
2017-10-10T07:54:00.766Z,90.67
2017-10-10T07:56:29.374Z,90.66
2017-10-10T07:58:58.034Z,90.78
2017-10-10T08:01:26.647Z,90.84
2017-10-10T08:03:55.279Z,90.73
2017-10-10T08:06:23.950Z,90.83
2017-10-10T08:08:52.581Z,90.87
2017-10-10T08:11:21.208Z,90.86
2017-10-10T08:13:49.868Z,91.03
2017-10-10T08:16:18.554Z,91.07
2017-10-10T08:18:47.175Z,90.95
2017-10-10T08:21:15.790Z,91.13
2017-10-10T08:23:44.462Z,91.07
2017-10-10T08:26:13.124Z,90.38
2017-10-10T08:28:41.736Z,90.81
2017-10-10T08:31:10.414Z,90.77
2017-10-10T08:33:39.082Z,90.80
2017-10-10T08:36:07.780Z,90.64
2017-10-10T08:38:36.409Z,90.81
2017-10-10T08:41:05.041Z,90.86
2017-10-10T08:43:33.573Z,91.14
2017-10-10T08:46:02.194Z,90.44
2017-10-10T08:48:30.844Z,90.21
2017-10-10T08:50:59.507Z,90.58
2017-10-10T08:53:28.131Z,90.74
2017-10-10T08:55:56.751Z,90.78
2017-10-10T08:58:25.428Z,90.62
2017-10-10T09:00:54.090Z,90.82
2017-10-10T09:03:22.705Z,90.98
2017-10-10T09:05:51.319Z,90.73
2017-10-10T09:08:19.991Z,90.80
2017-10-10T09:10:48.602Z,90.41
2017-10-10T09:13:17.215Z,90.84
2017-10-10T09:15:45.874Z,90.55
2017-10-10T09:18:14.517Z,90.33
2017-10-10T09:20:43.131Z,90.56
2017-10-10T09:23:11.636Z,90.36
2017-10-10T09:25:40.303Z,90.39
2017-10-10T09:28:08.777Z,90.85
2017-10-10T09:30:37.434Z,90.57
2017-10-10T09:33:06.050Z,90.47
2017-10-10T09:35:34.704Z,90.67
2017-10-10T09:38:03.318Z,90.82
2017-10-10T09:40:32.000Z,90.69
2017-10-10T09:43:00.611Z,90.76
2017-10-10T09:45:29.289Z,90.79
2017-10-10T09:47:57.914Z,90.86
2017-10-10T09:50:26.558Z,90.49
2017-10-10T09:52:55.234Z,90.50
2017-10-10T09:55:23.840Z,90.78
2017-10-10T09:57:52.511Z,90.83
2017-10-10T10:00:21.127Z,90.95
2017-10-10T10:02:49.734Z,90.87
2017-10-10T10:05:18.398Z,90.96
2017-10-10T10:07:47.055Z,90.93
2017-10-10T10:10:15.674Z,90.75
2017-10-10T10:12:44.354Z,90.81
2017-10-10T10:15:12.989Z,90.78
2017-10-10T10:17:41.606Z,90.81
2017-10-10T10:20:10.270Z,90.78
2017-10-10T10:22:38.945Z,90.59
2017-10-10T10:25:07.580Z,90.80
2017-10-10T10:27:36.714Z,90.82
2017-10-10T10:30:05.373Z,90.90
2017-10-10T10:32:33.924Z,90.88
2017-10-10T10:35:02.555Z,90.89
2017-10-10T10:37:35.071Z,90.75
2017-10-10T10:40:03.731Z,90.87
2017-10-10T10:42:32.397Z,90.87
2017-10-10T10:45:01.019Z,90.80
2017-10-10T10:47:31.527Z,90.81
2017-10-10T10:50:00.489Z,91.03
2017-10-10T10:52:29.168Z,90.92
2017-10-10T10:54:57.782Z,90.92
2017-10-10T10:57:26.454Z,91.10
2017-10-10T10:59:55.071Z,91.07
2017-10-10T11:02:23.695Z,91.09
2017-10-10T11:04:52.353Z,90.93
2017-10-10T11:07:20.989Z,91.03
2017-10-10T11:09:49.646Z,90.84
2017-10-10T11:12:18.279Z,90.86
2017-10-10T11:14:46.811Z,90.85
2017-10-10T11:17:15.443Z,90.97
2017-10-10T11:19:44.107Z,91.17
2017-10-10T11:22:12.762Z,91.00
2017-10-10T11:24:41.415Z,90.67
2017-10-10T11:27:10.031Z,90.91
2017-10-10T11:29:38.654Z,90.62
2017-10-10T11:32:07.333Z,90.60
2017-10-10T11:34:35.812Z,90.67
2017-10-10T11:37:04.448Z,90.56
2017-10-10T11:39:33.118Z,90.55
2017-10-10T11:42:01.743Z,90.66
2017-10-10T11:44:30.374Z,90.47
2017-10-10T11:46:59.036Z,90.68
2017-10-10T11:49:27.642Z,90.56
2017-10-10T11:51:56.251Z,90.50
2017-10-10T11:54:24.943Z,90.62
2017-10-10T11:56:53.579Z,90.60
2017-10-10T11:59:22.207Z,90.76
2017-10-10T12:01:50.881Z,90.68
2017-10-10T12:04:19.507Z,90.78
2017-10-10T12:06:48.139Z,90.58
2017-10-10T12:09:16.815Z,90.08
2017-10-10T12:11:45.511Z,90.07
2017-10-10T12:14:14.146Z,90.22
2017-10-10T12:16:42.766Z,90.26
2017-10-10T12:19:11.458Z,90.00
2017-10-10T12:21:40.110Z,89.89
2017-10-10T12:24:08.794Z,90.24
2017-10-10T12:26:37.418Z,90.08
2017-10-10T12:29:06.077Z,89.90
2017-10-10T12:31:34.555Z,90.29
2017-10-10T12:34:03.091Z,90.19
2017-10-10T12:36:31.579Z,89.56
2017-10-10T12:39:00.189Z,89.65
2017-10-10T12:41:28.853Z,89.31
2017-10-10T12:43:57.461Z,89.90
2017-10-10T12:46:26.094Z,89.43
2017-10-10T12:48:54.760Z,89.67
2017-10-10T12:51:23.396Z,89.63
2017-10-10T12:53:52.002Z,89.02
2017-10-10T12:56:20.662Z,89.29
2017-10-10T12:58:49.144Z,89.45
2017-10-10T13:01:17.622Z,89.85
2017-10-10T13:03:46.287Z,89.75
2017-10-10T13:06:14.901Z,89.75
2017-10-10T13:08:43.544Z,89.33
2017-10-10T13:11:12.234Z,89.24
2017-10-10T13:13:40.843Z,89.78
2017-10-10T13:16:09.470Z,89.73
2017-10-10T13:18:38.122Z,89.54
2017-10-10T13:21:06.745Z,89.52
2017-10-10T13:23:35.359Z,89.17
2017-10-10T13:26:04.051Z,89.08
2017-10-10T13:28:32.671Z,88.75
2017-10-10T13:31:01.326Z,88.87
2017-10-10T13:33:30.016Z,88.79
2017-10-10T13:35:58.635Z,88.82
2017-10-10T13:38:26.967Z,88.47
2017-10-10T13:40:55.713Z,89.38
2017-10-10T13:43:24.227Z,88.83
2017-10-10T13:45:52.695Z,88.79
2017-10-10T13:48:21.393Z,89.28
2017-10-10T13:50:50.021Z,88.08
2017-10-10T13:53:18.635Z,89.08
2017-10-10T13:55:47.287Z,89.08
2017-10-10T13:58:15.942Z,88.92
2017-10-10T14:00:44.559Z,88.47
2017-10-10T14:03:13.184Z,88.72
2017-10-10T14:05:41.850Z,88.96
2017-10-10T14:08:10.467Z,88.96
2017-10-10T14:10:39.085Z,88.94
2017-10-10T14:13:07.746Z,88.42
2017-10-10T14:15:36.366Z,88.90
2017-10-10T14:18:05.046Z,88.79
2017-10-10T14:20:33.659Z,88.99
2017-10-10T14:23:02.329Z,89.02
2017-10-10T14:25:30.946Z,88.77
2017-10-10T14:27:59.597Z,88.83
2017-10-10T14:30:28.237Z,88.75
2017-10-10T14:32:56.936Z,88.63
2017-10-10T14:35:25.568Z,88.68
2017-10-10T14:37:54.191Z,89.20
2017-10-10T14:40:22.852Z,88.95
2017-10-10T14:42:51.461Z,89.52
2017-10-10T14:45:20.129Z,89.28
2017-10-10T14:47:48.760Z,89.31
2017-10-10T14:50:17.388Z,89.46
2017-10-10T14:52:46.082Z,89.43
2017-10-10T14:55:14.705Z,89.28
2017-10-10T14:57:43.322Z,89.35
2017-10-10T15:00:11.983Z,89.62
2017-10-10T15:02:40.617Z,89.34
2017-10-10T15:05:09.278Z,89.52
2017-10-10T15:07:38.660Z,89.64
2017-10-10T15:10:07.270Z,89.47
2017-10-10T15:12:35.931Z,89.72
2017-10-10T15:15:04.613Z,89.73
2017-10-10T15:17:36.192Z,90.04
2017-10-10T15:20:04.851Z,89.84
2017-10-10T15:22:33.454Z,89.96
2017-10-10T15:25:02.123Z,89.93
2017-10-10T15:27:34.718Z,89.77
2017-10-10T15:30:03.370Z,89.86
2017-10-10T15:32:31.987Z,89.87
2017-10-10T15:35:00.605Z,89.92
2017-10-10T15:37:30.044Z,89.85
2017-10-10T15:39:58.843Z,90.05
2017-10-10T15:42:27.506Z,89.88
2017-10-10T15:44:55.990Z,90.11
2017-10-10T15:47:24.494Z,90.02
2017-10-10T15:49:53.112Z,90.06
2017-10-10T15:52:21.757Z,90.13
2017-10-10T15:54:50.376Z,90.00
2017-10-10T15:57:19.033Z,90.01
2017-10-10T15:59:47.653Z,90.08
2017-10-10T16:02:16.320Z,90.17
2017-10-10T16:04:44.943Z,90.17
2017-10-10T16:07:13.602Z,90.22
2017-10-10T16:09:42.092Z,90.32
2017-10-10T16:12:10.766Z,90.32
2017-10-10T16:14:39.380Z,90.35
2017-10-10T16:17:08.034Z,90.21
2017-10-10T16:19:36.662Z,90.35
2017-10-10T16:22:05.329Z,90.24
2017-10-10T16:24:33.952Z,90.48
2017-10-10T16:27:02.950Z,90.54
2017-10-10T16:29:31.574Z,90.63
2017-10-10T16:32:00.054Z,90.53
2017-10-10T16:34:28.616Z,90.63
2017-10-10T16:36:57.079Z,90.59
2017-10-10T16:39:25.757Z,90.76
2017-10-10T16:41:54.436Z,90.76
2017-10-10T16:44:23.055Z,90.83
2017-10-10T16:46:51.736Z,90.94
2017-10-10T16:49:20.355Z,90.88
2017-10-10T16:51:49.135Z,90.96
2017-10-10T16:54:17.745Z,90.99
2017-10-10T16:56:46.406Z,90.95
2017-10-10T16:59:15.026Z,91.02
2017-10-10T17:01:43.647Z,91.04
2017-10-10T17:04:12.327Z,91.08
2017-10-10T17:06:40.942Z,91.00
2017-10-10T17:09:09.558Z,91.17
2017-10-10T17:11:38.220Z,91.11
2017-10-10T17:14:06.845Z,91.04
2017-10-10T17:16:35.465Z,91.11
2017-10-10T17:19:04.213Z,91.17
2017-10-10T17:21:36.483Z,91.04
2017-10-10T17:24:05.377Z,91.08
2017-10-10T17:26:34.400Z,91.07
2017-10-10T17:29:10.503Z,91.24
2017-10-10T17:31:49.693Z,91.36
2017-10-10T17:34:33.266Z,91.35
2017-10-10T17:39:58.978Z,91.18
2017-10-10T17:42:38.743Z,91.37
2017-10-10T17:45:21.093Z,91.44
2017-10-10T17:50:40.765Z,91.30
2017-10-10T17:53:20.810Z,91.32
2017-10-10T17:56:00.083Z,91.42
2017-10-10T17:58:41.034Z,91.34
2017-10-10T18:01:20.627Z,91.43
2017-10-10T18:04:00.252Z,91.51
2017-10-10T18:06:40.151Z,91.54
2017-10-10T18:09:21.331Z,91.52
2017-10-10T18:11:59.798Z,91.42
2017-10-10T18:14:43.964Z,91.53
2017-10-10T18:17:22.182Z,91.53
2017-10-10T18:20:03.431Z,91.59
2017-10-10T18:22:42.397Z,91.56
2017-10-10T18:25:22.182Z,91.72
2017-10-10T18:27:54.684Z,91.62
2017-10-10T18:30:30.772Z,91.57
2017-10-10T18:33:09.378Z,91.65
2017-10-10T18:35:53.421Z,91.62
2017-10-10T18:38:38.543Z,91.61
2017-10-10T18:41:23.305Z,91.59
2017-10-10T18:44:07.283Z,91.50
2017-10-10T18:46:51.901Z,91.62
2017-10-10T18:49:39.974Z,91.56
2017-10-10T18:52:28.544Z,91.60
2017-10-10T18:55:15.638Z,91.55
2017-10-10T18:57:51.361Z,91.50
2017-10-10T19:00:27.522Z,91.46
2017-10-10T19:02:59.381Z,91.63
2017-10-10T19:05:31.769Z,91.53
2017-10-10T19:08:01.818Z,91.60
2017-10-10T19:10:31.780Z,91.59
2017-10-10T19:13:03.200Z,91.74
2017-10-10T19:15:36.074Z,91.56
2017-10-10T19:18:06.873Z,91.62
2017-10-10T19:20:37.185Z,91.55
2017-10-10T19:23:06.890Z,91.71
2017-10-10T19:25:37.734Z,91.54
2017-10-10T19:28:14.182Z,91.54
2017-10-10T19:30:44.941Z,91.64
2017-10-10T19:33:14.845Z,91.65
2017-10-10T19:35:51.979Z,91.52
2017-10-10T19:38:22.021Z,91.54
2017-10-10T19:40:52.238Z,91.54
2017-10-10T19:43:22.702Z,91.57
2017-10-10T19:45:59.953Z,91.61
2017-10-10T19:48:28.909Z,91.57
2017-10-10T19:50:57.531Z,91.61
2017-10-10T19:53:26.190Z,91.37
2017-10-10T19:55:54.805Z,91.34
2017-10-10T19:58:23.459Z,91.55
2017-10-10T20:00:52.085Z,91.53
2017-10-10T20:03:20.746Z,91.58
2017-10-10T20:05:49.245Z,91.65
2017-10-10T20:08:17.867Z,91.49
2017-10-10T20:10:46.580Z,91.54
2017-10-10T20:13:15.259Z,91.39
2017-10-10T20:15:43.874Z,91.34
2017-10-10T20:18:12.494Z,91.61
2017-10-10T20:20:41.180Z,91.35
2017-10-10T20:23:09.795Z,91.39
2017-10-10T20:25:38.410Z,91.51
2017-10-10T20:28:07.068Z,91.25
2017-10-10T20:30:35.695Z,91.24
2017-10-10T20:33:04.327Z,91.39
2017-10-10T20:35:32.982Z,91.25
2017-10-10T20:38:01.652Z,91.30
2017-10-10T20:40:30.259Z,91.33
2017-10-10T20:42:58.729Z,91.30
2017-10-10T20:45:27.404Z,91.28
2017-10-10T20:47:56.027Z,91.27
2017-10-10T20:50:24.507Z,91.19
2017-10-10T20:52:53.177Z,91.31
2017-10-10T20:55:21.782Z,91.34
2017-10-10T20:57:51.131Z,91.28
2017-10-10T21:00:19.811Z,91.36
2017-10-10T21:02:48.479Z,91.34
2017-10-10T21:05:16.967Z,91.26
2017-10-10T21:07:45.622Z,91.34
2017-10-10T21:10:14.225Z,91.49
2017-10-10T21:12:42.895Z,91.33
2017-10-10T21:15:11.510Z,91.37
2017-10-10T21:17:40.127Z,91.29
2017-10-10T21:20:09.075Z,91.23
2017-10-10T21:22:37.779Z,91.29
2017-10-10T21:25:06.401Z,91.21
2017-10-10T21:27:39.157Z,91.32
2017-10-10T21:30:07.771Z,91.24
2017-10-10T21:32:36.286Z,91.32
2017-10-10T21:35:04.895Z,91.32
2017-10-10T21:37:38.091Z,91.28
2017-10-10T21:40:06.566Z,91.35
2017-10-10T21:42:35.182Z,91.29
2017-10-10T21:45:03.891Z,91.38
2017-10-10T21:47:36.740Z,91.42
2017-10-10T21:50:05.395Z,91.40
2017-10-10T21:52:34.089Z,91.36
2017-10-10T21:55:02.694Z,91.35
2017-10-10T21:57:36.434Z,91.37
2017-10-10T22:00:04.775Z,91.34
2017-10-10T22:02:34.658Z,91.46
2017-10-10T22:05:03.396Z,91.43
2017-10-10T22:07:35.640Z,91.44
2017-10-10T22:10:04.360Z,91.43
2017-10-10T22:12:33.022Z,91.51
2017-10-10T22:15:01.635Z,91.46
2017-10-10T22:17:30.255Z,91.61
2017-10-10T22:19:58.782Z,91.48
2017-10-10T22:22:27.401Z,91.39
2017-10-10T22:24:56.023Z,91.48
2017-10-10T22:27:24.731Z,91.58
2017-10-10T22:29:53.382Z,91.34
2017-10-10T22:32:21.992Z,91.21
2017-10-10T22:34:50.600Z,91.48
2017-10-10T22:37:19.251Z,91.52
2017-10-10T22:39:47.890Z,91.51
2017-10-10T22:42:16.533Z,91.50
2017-10-10T22:44:45.210Z,91.56
2017-10-10T22:47:13.817Z,91.67
2017-10-10T22:49:42.442Z,91.53
2017-10-10T22:52:11.131Z,91.75
2017-10-10T22:54:39.752Z,91.73
2017-10-10T22:57:08.383Z,91.62
2017-10-10T22:59:36.897Z,91.67
2017-10-10T23:02:05.425Z,91.70
2017-10-10T23:04:34.052Z,91.43
2017-10-10T23:07:02.705Z,91.46
2017-10-10T23:09:31.311Z,91.61
2017-10-10T23:11:59.975Z,91.60
2017-10-10T23:14:28.590Z,91.59
2017-10-10T23:16:57.218Z,91.58
2017-10-10T23:19:25.901Z,91.52
2017-10-10T23:21:54.538Z,91.59
2017-10-10T23:24:23.201Z,91.54
2017-10-10T23:26:51.823Z,91.71
2017-10-10T23:29:20.494Z,91.55
2017-10-10T23:31:49.111Z,91.63
2017-10-10T23:34:17.739Z,91.66
2017-10-10T23:36:46.401Z,91.68
2017-10-10T23:39:15.126Z,91.67
2017-10-10T23:41:43.762Z,91.68
2017-10-10T23:44:12.423Z,91.71
2017-10-10T23:46:41.086Z,91.49
2017-10-10T23:49:09.708Z,91.63
2017-10-10T23:51:38.375Z,91.56
2017-10-10T23:54:07.002Z,91.61
2017-10-10T23:56:35.627Z,91.59
2017-10-10T23:59:04.296Z,91.48
